Bakersfield, California
Current Conditions -  °F | °C
As of 5:54 PM on Thursday 20 Nov 2014 (Local Time) from KBFL Reporting Station
Overcast Overcast  
Wind Chill: 16°   Ceiling: 3900
Heat Index: 16°   Visibility: 10mi
Dew Point:   Wind: 8mph
Humidity: 64%   Direction: 320°NW
Pressure: 30.02"   Gusts: NA
Location:  35.37°N, 119.01°W
Report Text: KBFL 210154Z 32007KT 10SM SCT032 BKN039 OVC065 16/09 A3002 RMK AO2 SLP163 T01560089
Loading
Personal Weather Stations






























Interactive Weather Map New forecast layout! Learn more

10-Day Weather Forecast

Advertisements
Track Severe Weather on mobile